<?xml version="1.0" encoding="UTF-8"?><gpx creator="Wikiloc - https://www.wikiloc.com" version="1.1" xmlns="http://www.topografix.com/GPX/1/1" xmlns:xsi="http://www.w3.org/2001/XMLSchema-instance" xsi:schemaLocation="http://www.topografix.com/GPX/1/1 http://www.topografix.com/GPX/1/1/gpx.xsd"><metadata><name>Wikiloc - Paseos Rurales - Castañar de los Ojestos</name><author><name>Red Extremeña de Desarrollo Rural (REDEX)</name><link href="https://www.wikiloc.com/wikiloc/user.do?id=2006209"><text>Red Extremeña de Desarrollo Rural (REDEX) on Wikiloc</text></link></author><link href="https://www.wikiloc.com/walking-trails/paseos-rurales-castanar-de-los-ojestos-12495714"><text>Paseos Rurales - Castañar de los Ojestos on Wikiloc</text></link><time>2015-03-01T17:36:17Z</time></metadata><trk><name>Paseos Rurales - Castañar de los Ojestos</name><cmt></cmt><desc></desc><trkseg><trkpt lat="40.213220" lon="-6.797457"><ele>605.352</ele><time>2015-03-01T15:47:03Z</time></trkpt><trkpt lat="40.213250" lon="-6.797357"><ele>605.653</ele><time>2015-03-01T15:47:20Z</time></trkpt><trkpt lat="40.213240" lon="-6.797347"><ele>605.608</ele><time>2015-03-01T15:47:35Z</time></trkpt><trkpt lat="40.213230" lon="-6.797387"><ele>605.508</ele><time>2015-03-01T15:47:38Z</time></trkpt><trkpt lat="40.213230" lon="-6.797397"><ele>605.566</ele><time>2015-03-01T15:47:45Z</time></trkpt><trkpt lat="40.213230" lon="-6.797427"><ele>605.467</ele><time>2015-03-01T15:48:09Z</time></trkpt><trkpt lat="40.213270" lon="-6.797547"><ele>605.429</ele><time>2015-03-01T15:48:29Z</time></trkpt><trkpt lat="40.213290" lon="-6.797627"><ele>604.914</ele><time>2015-03-01T15:48:40Z</time></trkpt><trkpt lat="40.213490" lon="-6.797797"><ele>603.270</ele><time>2015-03-01T15:49:03Z</time></trkpt><trkpt lat="40.213620" lon="-6.797787"><ele>601.982</ele><time>2015-03-01T15:49:21Z</time></trkpt><trkpt lat="40.213810" lon="-6.798007"><ele>598.186</ele><time>2015-03-01T15:49:48Z</time></trkpt><trkpt lat="40.213960" lon="-6.798297"><ele>594.169</ele><time>2015-03-01T15:50:16Z</time></trkpt><trkpt lat="40.214080" lon="-6.798527"><ele>592.347</ele><time>2015-03-01T15:50:39Z</time></trkpt><trkpt lat="40.214200" lon="-6.798687"><ele>590.329</ele><time>2015-03-01T15:50:56Z</time></trkpt><trkpt lat="40.214390" lon="-6.798937"><ele>588.721</ele><time>2015-03-01T15:51:22Z</time></trkpt><trkpt lat="40.214550" lon="-6.799197"><ele>587.508</ele><time>2015-03-01T15:51:44Z</time></trkpt><trkpt lat="40.214580" lon="-6.799497"><ele>586.165</ele><time>2015-03-01T15:52:01Z</time></trkpt><trkpt lat="40.214600" lon="-6.799647"><ele>585.686</ele><time>2015-03-01T15:52:20Z</time></trkpt><trkpt lat="40.214600" lon="-6.799917"><ele>584.218</ele><time>2015-03-01T15:52:39Z</time></trkpt><trkpt lat="40.214550" lon="-6.800157"><ele>584.183</ele><time>2015-03-01T15:52:59Z</time></trkpt><trkpt lat="40.214580" lon="-6.800367"><ele>580.289</ele><time>2015-03-01T15:53:15Z</time></trkpt><trkpt lat="40.214650" lon="-6.800677"><ele>578.171</ele><time>2015-03-01T15:53:37Z</time></trkpt><trkpt lat="40.214710" lon="-6.800857"><ele>576.415</ele><time>2015-03-01T15:53:55Z</time></trkpt><trkpt lat="40.214810" lon="-6.801027"><ele>575.078</ele><time>2015-03-01T15:54:11Z</time></trkpt><trkpt lat="40.214840" lon="-6.801097"><ele>575.469</ele><time>2015-03-01T15:54:18Z</time></trkpt><trkpt lat="40.215040" lon="-6.801257"><ele>575.304</ele><time>2015-03-01T15:54:42Z</time></trkpt><trkpt lat="40.215490" lon="-6.801587"><ele>573.424</ele><time>2015-03-01T15:55:28Z</time></trkpt><trkpt lat="40.215690" lon="-6.801707"><ele>574.908</ele><time>2015-03-01T15:55:48Z</time></trkpt><trkpt lat="40.215960" lon="-6.801827"><ele>579.427</ele><time>2015-03-01T15:55:57Z</time></trkpt><trkpt lat="40.216090" lon="-6.802047"><ele>580.188</ele><time>2015-03-01T15:56:26Z</time></trkpt><trkpt lat="40.216130" lon="-6.802317"><ele>579.580</ele><time>2015-03-01T15:56:49Z</time></trkpt><trkpt lat="40.216130" lon="-6.802457"><ele>578.415</ele><time>2015-03-01T15:57:29Z</time></trkpt><trkpt lat="40.216130" lon="-6.802237"><ele>579.831</ele><time>2015-03-01T15:57:55Z</time></trkpt><trkpt lat="40.216780" lon="-6.802087"><ele>590.773</ele><time>2015-03-01T15:59:00Z</time></trkpt><trkpt lat="40.216820" lon="-6.802187"><ele>590.897</ele><time>2015-03-01T15:59:35Z</time></trkpt><trkpt lat="40.216860" lon="-6.802157"><ele>590.920</ele><time>2015-03-01T16:00:46Z</time></trkpt><trkpt lat="40.216940" lon="-6.802107"><ele>591.588</ele><time>2015-03-01T16:01:08Z</time></trkpt><trkpt lat="40.216990" lon="-6.802067"><ele>592.424</ele><time>2015-03-01T16:01:13Z</time></trkpt><trkpt lat="40.217410" lon="-6.802107"><ele>593.426</ele><time>2015-03-01T16:01:54Z</time></trkpt><trkpt lat="40.217490" lon="-6.802117"><ele>593.008</ele><time>2015-03-01T16:02:09Z</time></trkpt><trkpt lat="40.217520" lon="-6.802107"><ele>593.259</ele><time>2015-03-01T16:02:11Z</time></trkpt><trkpt lat="40.217650" lon="-6.802147"><ele>592.610</ele><time>2015-03-01T16:02:30Z</time></trkpt><trkpt lat="40.217880" lon="-6.802277"><ele>590.322</ele><time>2015-03-01T16:02:51Z</time></trkpt><trkpt lat="40.217930" lon="-6.802277"><ele>589.827</ele><time>2015-03-01T16:02:56Z</time></trkpt><trkpt lat="40.218220" lon="-6.802237"><ele>587.423</ele><time>2015-03-01T16:03:23Z</time></trkpt><trkpt lat="40.218250" lon="-6.802217"><ele>587.575</ele><time>2015-03-01T16:03:26Z</time></trkpt><trkpt lat="40.218490" lon="-6.802027"><ele>586.939</ele><time>2015-03-01T16:03:50Z</time></trkpt><trkpt lat="40.218690" lon="-6.801777"><ele>589.952</ele><time>2015-03-01T16:04:14Z</time></trkpt><trkpt lat="40.218910" lon="-6.801617"><ele>590.563</ele><time>2015-03-01T16:04:37Z</time></trkpt><trkpt lat="40.219160" lon="-6.801477"><ele>591.144</ele><time>2015-03-01T16:05:03Z</time></trkpt><trkpt lat="40.219370" lon="-6.801387"><ele>592.818</ele><time>2015-03-01T16:05:22Z</time></trkpt><trkpt lat="40.219650" lon="-6.801397"><ele>591.008</ele><time>2015-03-01T16:05:46Z</time></trkpt><trkpt lat="40.219690" lon="-6.801387"><ele>591.797</ele><time>2015-03-01T16:05:50Z</time></trkpt><trkpt lat="40.219890" lon="-6.801327"><ele>593.828</ele><time>2015-03-01T16:06:06Z</time></trkpt><trkpt lat="40.220010" lon="-6.801047"><ele>595.480</ele><time>2015-03-01T16:06:29Z</time></trkpt><trkpt lat="40.220060" lon="-6.800727"><ele>593.825</ele><time>2015-03-01T16:06:51Z</time></trkpt><trkpt lat="40.220210" lon="-6.800117"><ele>596.151</ele><time>2015-03-01T16:08:21Z</time></trkpt><trkpt lat="40.220270" lon="-6.799977"><ele>598.463</ele><time>2015-03-01T16:08:39Z</time></trkpt><trkpt lat="40.220590" lon="-6.799767"><ele>602.187</ele><time>2015-03-01T16:09:07Z</time></trkpt><trkpt lat="40.220950" lon="-6.799507"><ele>609.890</ele><time>2015-03-01T16:10:16Z</time></trkpt><trkpt lat="40.221160" lon="-6.798767"><ele>619.637</ele><time>2015-03-01T16:11:18Z</time></trkpt><trkpt lat="40.221270" lon="-6.798307"><ele>618.849</ele><time>2015-03-01T16:11:57Z</time></trkpt><trkpt lat="40.221890" lon="-6.797947"><ele>629.313</ele><time>2015-03-01T16:13:10Z</time></trkpt><trkpt lat="40.222130" lon="-6.797747"><ele>634.508</ele><time>2015-03-01T16:13:33Z</time></trkpt><trkpt lat="40.222500" lon="-6.797307"><ele>642.664</ele><time>2015-03-01T16:14:18Z</time></trkpt><trkpt lat="40.222680" lon="-6.797207"><ele>645.035</ele><time>2015-03-01T16:14:38Z</time></trkpt><trkpt lat="40.222680" lon="-6.797197"><ele>645.237</ele><time>2015-03-01T16:14:39Z</time></trkpt><trkpt lat="40.222870" lon="-6.797197"><ele>645.672</ele><time>2015-03-01T16:14:56Z</time></trkpt><trkpt lat="40.222830" lon="-6.797197"><ele>645.928</ele><time>2015-03-01T16:15:43Z</time></trkpt><trkpt lat="40.223040" lon="-6.797067"><ele>644.940</ele><time>2015-03-01T16:16:03Z</time></trkpt><trkpt lat="40.223210" lon="-6.796787"><ele>641.844</ele><time>2015-03-01T16:16:23Z</time></trkpt><trkpt lat="40.223330" lon="-6.796587"><ele>641.177</ele><time>2015-03-01T16:16:57Z</time></trkpt><trkpt lat="40.223840" lon="-6.795827"><ele>643.694</ele><time>2015-03-01T16:18:15Z</time></trkpt><trkpt lat="40.224050" lon="-6.795587"><ele>644.457</ele><time>2015-03-01T16:18:38Z</time></trkpt><trkpt lat="40.224160" lon="-6.795387"><ele>646.722</ele><time>2015-03-01T16:19:43Z</time></trkpt><trkpt lat="40.224320" lon="-6.794987"><ele>651.608</ele><time>2015-03-01T16:20:14Z</time></trkpt><trkpt lat="40.224560" lon="-6.794877"><ele>649.590</ele><time>2015-03-01T16:20:45Z</time></trkpt><trkpt lat="40.224770" lon="-6.794697"><ele>650.081</ele><time>2015-03-01T16:21:11Z</time></trkpt><trkpt lat="40.224940" lon="-6.794407"><ele>657.513</ele><time>2015-03-01T16:21:34Z</time></trkpt><trkpt lat="40.225080" lon="-6.794317"><ele>659.658</ele><time>2015-03-01T16:21:47Z</time></trkpt><trkpt lat="40.225170" lon="-6.794247"><ele>660.184</ele><time>2015-03-01T16:21:57Z</time></trkpt><trkpt lat="40.225440" lon="-6.794267"><ele>652.786</ele><time>2015-03-01T16:22:21Z</time></trkpt><trkpt lat="40.225710" lon="-6.794207"><ele>652.310</ele><time>2015-03-01T16:22:43Z</time></trkpt><trkpt lat="40.225830" lon="-6.794087"><ele>654.113</ele><time>2015-03-01T16:22:59Z</time></trkpt><trkpt lat="40.225880" lon="-6.794077"><ele>653.748</ele><time>2015-03-01T16:23:02Z</time></trkpt><trkpt lat="40.226180" lon="-6.793907"><ele>655.761</ele><time>2015-03-01T16:23:37Z</time></trkpt><trkpt lat="40.226390" lon="-6.793877"><ele>658.117</ele><time>2015-03-01T16:25:53Z</time></trkpt><trkpt lat="40.226490" lon="-6.793537"><ele>659.808</ele><time>2015-03-01T16:26:21Z</time></trkpt><trkpt lat="40.226730" lon="-6.793347"><ele>661.735</ele><time>2015-03-01T16:26:48Z</time></trkpt><trkpt lat="40.227410" lon="-6.792927"><ele>666.256</ele><time>2015-03-01T16:27:52Z</time></trkpt><trkpt lat="40.227530" lon="-6.792537"><ele>671.778</ele><time>2015-03-01T16:28:21Z</time></trkpt><trkpt lat="40.227990" lon="-6.791957"><ele>677.843</ele><time>2015-03-01T16:29:14Z</time></trkpt><trkpt lat="40.228250" lon="-6.791607"><ele>676.839</ele><time>2015-03-01T16:29:45Z</time></trkpt><trkpt lat="40.230250" lon="-6.790557"><ele>720.771</ele><time>2015-03-01T16:34:11Z</time></trkpt><trkpt lat="40.230800" lon="-6.790407"><ele>725.215</ele><time>2015-03-01T16:36:40Z</time></trkpt><trkpt lat="40.230920" lon="-6.790277"><ele>727.798</ele><time>2015-03-01T16:37:15Z</time></trkpt><trkpt lat="40.231330" lon="-6.789897"><ele>728.859</ele><time>2015-03-01T16:37:50Z</time></trkpt><trkpt lat="40.231330" lon="-6.789887"><ele>729.203</ele><time>2015-03-01T16:37:51Z</time></trkpt><trkpt lat="40.231420" lon="-6.789697"><ele>732.823</ele><time>2015-03-01T16:38:17Z</time></trkpt><trkpt lat="40.231590" lon="-6.789467"><ele>735.208</ele><time>2015-03-01T16:38:42Z</time></trkpt><trkpt lat="40.231900" lon="-6.789347"><ele>733.386</ele><time>2015-03-01T16:40:06Z</time></trkpt><trkpt lat="40.228730" lon="-6.789897"><ele>759.817</ele><time>2015-03-01T16:45:25Z</time></trkpt><trkpt lat="40.227980" lon="-6.790177"><ele>758.119</ele><time>2015-03-01T16:46:47Z</time></trkpt><trkpt lat="40.227210" lon="-6.791087"><ele>742.274</ele><time>2015-03-01T16:48:28Z</time></trkpt><trkpt lat="40.227120" lon="-6.791237"><ele>739.770</ele><time>2015-03-01T16:48:50Z</time></trkpt><trkpt lat="40.226890" lon="-6.791547"><ele>736.242</ele><time>2015-03-01T16:49:25Z</time></trkpt><trkpt lat="40.226840" lon="-6.791587"><ele>735.646</ele><time>2015-03-01T16:49:28Z</time></trkpt><trkpt lat="40.226450" lon="-6.791847"><ele>732.089</ele><time>2015-03-01T16:50:12Z</time></trkpt><trkpt lat="40.226320" lon="-6.791857"><ele>733.173</ele><time>2015-03-01T16:50:30Z</time></trkpt><trkpt lat="40.226030" lon="-6.791857"><ele>734.385</ele><time>2015-03-01T16:50:57Z</time></trkpt><trkpt lat="40.225720" lon="-6.791677"><ele>732.613</ele><time>2015-03-01T16:51:25Z</time></trkpt><trkpt lat="40.225580" lon="-6.791547"><ele>730.608</ele><time>2015-03-01T16:51:45Z</time></trkpt><trkpt lat="40.225390" lon="-6.791517"><ele>729.658</ele><time>2015-03-01T16:52:10Z</time></trkpt><trkpt lat="40.225210" lon="-6.791707"><ele>730.559</ele><time>2015-03-01T16:52:30Z</time></trkpt><trkpt lat="40.224910" lon="-6.792067"><ele>727.831</ele><time>2015-03-01T16:53:20Z</time></trkpt><trkpt lat="40.224200" lon="-6.792357"><ele>734.376</ele><time>2015-03-01T16:54:05Z</time></trkpt><trkpt lat="40.224100" lon="-6.792577"><ele>730.582</ele><time>2015-03-01T16:54:30Z</time></trkpt><trkpt lat="40.223960" lon="-6.792617"><ele>732.144</ele><time>2015-03-01T16:54:42Z</time></trkpt><trkpt lat="40.223860" lon="-6.792727"><ele>730.798</ele><time>2015-03-01T16:55:03Z</time></trkpt><trkpt lat="40.223340" lon="-6.792877"><ele>731.371</ele><time>2015-03-01T16:55:55Z</time></trkpt><trkpt lat="40.222970" lon="-6.792897"><ele>731.894</ele><time>2015-03-01T16:56:37Z</time></trkpt><trkpt lat="40.222760" lon="-6.792977"><ele>731.157</ele><time>2015-03-01T16:56:57Z</time></trkpt><trkpt lat="40.222630" lon="-6.792957"><ele>731.522</ele><time>2015-03-01T16:57:16Z</time></trkpt><trkpt lat="40.222370" lon="-6.792927"><ele>729.908</ele><time>2015-03-01T16:57:38Z</time></trkpt><trkpt lat="40.222180" lon="-6.792927"><ele>728.460</ele><time>2015-03-01T16:57:58Z</time></trkpt><trkpt lat="40.221980" lon="-6.792867"><ele>728.381</ele><time>2015-03-01T16:58:17Z</time></trkpt><trkpt lat="40.221780" lon="-6.792757"><ele>727.123</ele><time>2015-03-01T16:58:44Z</time></trkpt><trkpt lat="40.221590" lon="-6.792787"><ele>723.548</ele><time>2015-03-01T16:59:04Z</time></trkpt><trkpt lat="40.221350" lon="-6.792767"><ele>720.734</ele><time>2015-03-01T16:59:26Z</time></trkpt><trkpt lat="40.221070" lon="-6.792947"><ele>721.216</ele><time>2015-03-01T17:00:05Z</time></trkpt><trkpt lat="40.220910" lon="-6.793117"><ele>723.280</ele><time>2015-03-01T17:00:27Z</time></trkpt><trkpt lat="40.220680" lon="-6.793387"><ele>725.783</ele><time>2015-03-01T17:00:54Z</time></trkpt><trkpt lat="40.220660" lon="-6.793397"><ele>725.812</ele><time>2015-03-01T17:00:55Z</time></trkpt><trkpt lat="40.220470" lon="-6.793457"><ele>728.132</ele><time>2015-03-01T17:01:14Z</time></trkpt><trkpt lat="40.220370" lon="-6.793447"><ele>728.505</ele><time>2015-03-01T17:01:31Z</time></trkpt><trkpt lat="40.220260" lon="-6.793447"><ele>727.808</ele><time>2015-03-01T17:01:53Z</time></trkpt><trkpt lat="40.220190" lon="-6.793467"><ele>727.182</ele><time>2015-03-01T17:02:11Z</time></trkpt><trkpt lat="40.220050" lon="-6.793567"><ele>725.873</ele><time>2015-03-01T17:02:31Z</time></trkpt><trkpt lat="40.219860" lon="-6.793667"><ele>722.925</ele><time>2015-03-01T17:02:50Z</time></trkpt><trkpt lat="40.219690" lon="-6.793567"><ele>722.350</ele><time>2015-03-01T17:03:11Z</time></trkpt><trkpt lat="40.219580" lon="-6.793457"><ele>721.676</ele><time>2015-03-01T17:03:25Z</time></trkpt><trkpt lat="40.219380" lon="-6.793327"><ele>718.698</ele><time>2015-03-01T17:03:48Z</time></trkpt><trkpt lat="40.219230" lon="-6.793207"><ele>716.642</ele><time>2015-03-01T17:04:04Z</time></trkpt><trkpt lat="40.219090" lon="-6.793067"><ele>716.255</ele><time>2015-03-01T17:04:23Z</time></trkpt><trkpt lat="40.218970" lon="-6.792967"><ele>714.521</ele><time>2015-03-01T17:04:40Z</time></trkpt><trkpt lat="40.218910" lon="-6.792937"><ele>713.441</ele><time>2015-03-01T17:04:47Z</time></trkpt><trkpt lat="40.218810" lon="-6.792897"><ele>712.205</ele><time>2015-03-01T17:05:05Z</time></trkpt><trkpt lat="40.218570" lon="-6.792817"><ele>708.308</ele><time>2015-03-01T17:05:32Z</time></trkpt><trkpt lat="40.218360" lon="-6.792797"><ele>705.113</ele><time>2015-03-01T17:05:56Z</time></trkpt><trkpt lat="40.218180" lon="-6.792737"><ele>702.414</ele><time>2015-03-01T17:06:18Z</time></trkpt><trkpt lat="40.218070" lon="-6.792707"><ele>701.786</ele><time>2015-03-01T17:06:35Z</time></trkpt><trkpt lat="40.217950" lon="-6.792667"><ele>699.121</ele><time>2015-03-01T17:06:51Z</time></trkpt><trkpt lat="40.217780" lon="-6.792587"><ele>697.817</ele><time>2015-03-01T17:07:13Z</time></trkpt><trkpt lat="40.217610" lon="-6.792547"><ele>693.259</ele><time>2015-03-01T17:07:36Z</time></trkpt><trkpt lat="40.217440" lon="-6.792437"><ele>689.833</ele><time>2015-03-01T17:07:59Z</time></trkpt><trkpt lat="40.217340" lon="-6.792497"><ele>687.626</ele><time>2015-03-01T17:08:18Z</time></trkpt><trkpt lat="40.217340" lon="-6.792757"><ele>684.593</ele><time>2015-03-01T17:08:41Z</time></trkpt><trkpt lat="40.217340" lon="-6.792947"><ele>681.965</ele><time>2015-03-01T17:08:57Z</time></trkpt><trkpt lat="40.217360" lon="-6.793127"><ele>679.121</ele><time>2015-03-01T17:09:17Z</time></trkpt><trkpt lat="40.217420" lon="-6.793317"><ele>675.808</ele><time>2015-03-01T17:09:36Z</time></trkpt><trkpt lat="40.217450" lon="-6.793457"><ele>673.590</ele><time>2015-03-01T17:09:50Z</time></trkpt><trkpt lat="40.217500" lon="-6.793617"><ele>670.891</ele><time>2015-03-01T17:10:10Z</time></trkpt><trkpt lat="40.217520" lon="-6.793707"><ele>668.853</ele><time>2015-03-01T17:10:30Z</time></trkpt><trkpt lat="40.217600" lon="-6.793847"><ele>667.128</ele><time>2015-03-01T17:10:46Z</time></trkpt><trkpt lat="40.217660" lon="-6.794027"><ele>664.944</ele><time>2015-03-01T17:11:06Z</time></trkpt><trkpt lat="40.217670" lon="-6.794047"><ele>664.896</ele><time>2015-03-01T17:11:09Z</time></trkpt><trkpt lat="40.217720" lon="-6.794157"><ele>664.030</ele><time>2015-03-01T17:11:25Z</time></trkpt><trkpt lat="40.217630" lon="-6.794217"><ele>661.533</ele><time>2015-03-01T17:11:43Z</time></trkpt><trkpt lat="40.217490" lon="-6.794187"><ele>658.957</ele><time>2015-03-01T17:12:02Z</time></trkpt><trkpt lat="40.217330" lon="-6.794127"><ele>655.700</ele><time>2015-03-01T17:12:23Z</time></trkpt><trkpt lat="40.217220" lon="-6.794127"><ele>653.220</ele><time>2015-03-01T17:12:46Z</time></trkpt><trkpt lat="40.217110" lon="-6.794137"><ele>650.708</ele><time>2015-03-01T17:13:04Z</time></trkpt><trkpt lat="40.217040" lon="-6.794127"><ele>649.426</ele><time>2015-03-01T17:13:21Z</time></trkpt><trkpt lat="40.216960" lon="-6.794157"><ele>648.057</ele><time>2015-03-01T17:13:35Z</time></trkpt><trkpt lat="40.216830" lon="-6.794157"><ele>645.879</ele><time>2015-03-01T17:13:54Z</time></trkpt><trkpt lat="40.216700" lon="-6.794197"><ele>643.054</ele><time>2015-03-01T17:14:14Z</time></trkpt><trkpt lat="40.216630" lon="-6.794217"><ele>641.720</ele><time>2015-03-01T17:14:29Z</time></trkpt><trkpt lat="40.216550" lon="-6.794167"><ele>640.772</ele><time>2015-03-01T17:15:09Z</time></trkpt><trkpt lat="40.216400" lon="-6.794177"><ele>637.546</ele><time>2015-03-01T17:15:28Z</time></trkpt><trkpt lat="40.216230" lon="-6.794177"><ele>634.649</ele><time>2015-03-01T17:16:08Z</time></trkpt><trkpt lat="40.216060" lon="-6.794187"><ele>632.437</ele><time>2015-03-01T17:16:28Z</time></trkpt><trkpt lat="40.215860" lon="-6.794207"><ele>628.749</ele><time>2015-03-01T17:16:51Z</time></trkpt><trkpt lat="40.215670" lon="-6.794197"><ele>625.713</ele><time>2015-03-01T17:17:12Z</time></trkpt><trkpt lat="40.215460" lon="-6.794217"><ele>621.708</ele><time>2015-03-01T17:17:37Z</time></trkpt><trkpt lat="40.215360" lon="-6.794247"><ele>620.884</ele><time>2015-03-01T17:17:53Z</time></trkpt><trkpt lat="40.215310" lon="-6.794237"><ele>620.795</ele><time>2015-03-01T17:18:36Z</time></trkpt><trkpt lat="40.215240" lon="-6.794287"><ele>620.467</ele><time>2015-03-01T17:18:52Z</time></trkpt><trkpt lat="40.215200" lon="-6.794327"><ele>620.292</ele><time>2015-03-01T17:19:10Z</time></trkpt><trkpt lat="40.215030" lon="-6.794407"><ele>620.148</ele><time>2015-03-01T17:19:31Z</time></trkpt><trkpt lat="40.214850" lon="-6.794477"><ele>619.760</ele><time>2015-03-01T17:19:50Z</time></trkpt><trkpt lat="40.214750" lon="-6.794397"><ele>620.054</ele><time>2015-03-01T17:20:04Z</time></trkpt><trkpt lat="40.214600" lon="-6.794427"><ele>619.767</ele><time>2015-03-01T17:20:19Z</time></trkpt><trkpt lat="40.214570" lon="-6.794427"><ele>619.731</ele><time>2015-03-01T17:20:21Z</time></trkpt><trkpt lat="40.214390" lon="-6.794367"><ele>618.161</ele><time>2015-03-01T17:20:43Z</time></trkpt><trkpt lat="40.213307" lon="-6.794405"><ele>624.107</ele><time>2015-03-01T17:20:55Z</time></trkpt><trkpt lat="40.213307" lon="-6.794405"><ele>624.108</ele><time>2015-03-01T17:23:02Z</time></trkpt><trkpt lat="40.213120" lon="-6.794917"><ele>621.074</ele><time>2015-03-01T17:23:37Z</time></trkpt><trkpt lat="40.212980" lon="-6.795607"><ele>614.975</ele><time>2015-03-01T17:24:42Z</time></trkpt><trkpt lat="40.212981" lon="-6.796249"><ele>612.397</ele><time>2015-03-01T17:26:35Z</time></trkpt><trkpt lat="40.212960" lon="-6.796257"><ele>612.432</ele><time>2015-03-01T17:28:49Z</time></trkpt><trkpt lat="40.212930" lon="-6.796547"><ele>610.928</ele><time>2015-03-01T17:29:11Z</time></trkpt><trkpt lat="40.212920" lon="-6.796717"><ele>609.520</ele><time>2015-03-01T17:30:21Z</time></trkpt><trkpt lat="40.213255" lon="-6.797369"><ele>605.584</ele><time>2015-03-01T17:36:17Z</time></trkpt></trkseg></trk></gpx>